createdAt,value
2019-01-23T00:00:35.620Z,-3.45
2019-01-23T00:03:06.790Z,-3.25
2019-01-23T00:05:38.119Z,-3.11
2019-01-23T00:08:09.528Z,-3.11
2019-01-23T00:10:40.939Z,-3.19
2019-01-23T00:13:12.118Z,-3.24
2019-01-23T00:15:43.781Z,-3.21
2019-01-23T00:18:14.918Z,-3.19
2019-01-23T00:20:45.997Z,-3.01
2019-01-23T00:23:17.174Z,-2.94
2019-01-23T00:25:48.308Z,-2.97
2019-01-23T00:28:19.452Z,-3.25
2019-01-23T00:30:50.512Z,-3.47
2019-01-23T00:33:21.746Z,-3.31
2019-01-23T00:35:52.815Z,-3.23
2019-01-23T00:38:23.897Z,-3.31
2019-01-23T00:40:54.943Z,-3.36
2019-01-23T00:43:26.120Z,-3.28
2019-01-23T00:45:57.112Z,-3.19
2019-01-23T00:48:28.206Z,-3.15
2019-01-23T00:50:59.271Z,-3.17
2019-01-23T00:53:30.436Z,-3.09
2019-01-23T00:56:01.523Z,-3.25
2019-01-23T00:58:32.559Z,-3.23
2019-01-23T01:01:04.857Z,-3.17
2019-01-23T01:03:36.038Z,-3.10
2019-01-23T01:06:08.246Z,-3.08
2019-01-23T01:08:39.394Z,-3.12
2019-01-23T01:11:11.598Z,-3.14
2019-01-23T01:13:42.747Z,-3.08
2019-01-23T01:16:13.797Z,-2.98
2019-01-23T01:18:44.903Z,-3.14
2019-01-23T01:21:16.017Z,-3.12
2019-01-23T01:23:47.285Z,-3.03
2019-01-23T01:26:18.422Z,-2.99
2019-01-23T01:28:55.830Z,-2.95
2019-01-23T01:31:22.442Z,-3.01
2019-01-23T01:33:53.739Z,-3.18
2019-01-23T01:36:24.890Z,-2.93
2019-01-23T01:38:56.087Z,-3.05
2019-01-23T01:41:27.222Z,-2.69
2019-01-23T01:43:59.410Z,-2.68
2019-01-23T01:46:30.636Z,-2.70
2019-01-23T01:49:01.718Z,-2.85
2019-01-23T01:51:32.706Z,-3.02
2019-01-23T01:54:03.875Z,-2.68
2019-01-23T01:56:34.933Z,-2.72
2019-01-23T01:59:06.079Z,-2.78
2019-01-23T02:01:37.213Z,-2.55
2019-01-23T02:04:08.423Z,-2.54
2019-01-23T02:06:39.642Z,-2.70
2019-01-23T02:09:10.785Z,-2.68
2019-01-23T02:11:41.850Z,-2.90
2019-01-23T02:14:12.923Z,-2.75
2019-01-23T02:16:44.066Z,-2.75
2019-01-23T02:19:15.210Z,-2.81
2019-01-23T02:21:46.411Z,-2.89
2019-01-23T02:24:17.493Z,-2.92
2019-01-23T02:26:48.647Z,-2.96
2019-01-23T02:29:19.818Z,-3.00
2019-01-23T02:31:51.082Z,-3.20
2019-01-23T02:34:22.162Z,-3.18
2019-01-23T02:36:53.393Z,-3.14
2019-01-23T02:39:24.503Z,-3.08
2019-01-23T02:41:55.741Z,-3.03
2019-01-23T02:44:26.889Z,-3.13
2019-01-23T02:46:57.873Z,-2.86
2019-01-23T02:49:29.049Z,-2.86
2019-01-23T02:52:00.135Z,-3.02
2019-01-23T02:54:31.314Z,-3.02
2019-01-23T02:57:02.510Z,-2.92
2019-01-23T02:59:33.562Z,-2.93
2019-01-23T03:02:05.458Z,-2.84
2019-01-23T03:04:36.561Z,-2.92
2019-01-23T03:07:07.879Z,-3.04
2019-01-23T03:09:39.030Z,-3.05
2019-01-23T03:12:10.164Z,-2.96
2019-01-23T03:14:41.322Z,-2.97
2019-01-23T03:17:12.554Z,-2.96
2019-01-23T03:19:43.609Z,-2.99
2019-01-23T03:22:14.706Z,-3.14
2019-01-23T03:24:45.883Z,-3.25
2019-01-23T03:27:16.973Z,-3.25
2019-01-23T03:29:48.155Z,-3.23
2019-01-23T03:32:19.158Z,-2.91
2019-01-23T03:34:50.336Z,-3.08
2019-01-23T03:37:21.427Z,-2.74
2019-01-23T03:39:52.678Z,-2.99
2019-01-23T03:42:23.902Z,-3.32
2019-01-23T03:44:55.078Z,-3.17
2019-01-23T03:47:26.245Z,-3.34
2019-01-23T03:49:57.329Z,-3.32
2019-01-23T03:52:28.611Z,-3.35
2019-01-23T03:54:59.774Z,-3.05
2019-01-23T03:57:30.924Z,-2.93
2019-01-23T04:00:02.193Z,-2.98
2019-01-23T04:02:35.122Z,-3.26
2019-01-23T04:05:08.254Z,-3.41
2019-01-23T04:07:39.405Z,-2.99
2019-01-23T04:10:12.891Z,-3.15
2019-01-23T04:12:44.177Z,-2.98
2019-01-23T04:15:16.108Z,-3.21
2019-01-23T04:17:47.239Z,-3.13
2019-01-23T04:20:21.581Z,-3.08
2019-01-23T04:22:52.714Z,-3.29
2019-01-23T04:25:23.942Z,-3.34
2019-01-23T04:27:55.206Z,-3.30
2019-01-23T04:30:26.437Z,-3.47
2019-01-23T04:32:57.499Z,-3.33
2019-01-23T04:35:28.667Z,-3.20
2019-01-23T04:37:59.893Z,-3.43
2019-01-23T04:40:30.967Z,-3.45
2019-01-23T04:43:02.268Z,-3.50
2019-01-23T04:45:33.473Z,-3.30
2019-01-23T04:48:04.622Z,-3.43
2019-01-23T04:50:54.727Z,-3.37
2019-01-23T04:53:33.790Z,-3.58
2019-01-23T04:56:05.423Z,-3.40
2019-01-23T04:58:36.531Z,-2.96
2019-01-23T05:01:07.647Z,-3.02
2019-01-23T05:03:38.992Z,-3.06
2019-01-23T05:06:10.141Z,-2.98
2019-01-23T05:08:41.322Z,-3.03
2019-01-23T05:11:12.418Z,-2.95
2019-01-23T05:13:43.701Z,-3.00
2019-01-23T05:16:14.801Z,-2.98
2019-01-23T05:18:45.811Z,-3.16
2019-01-23T05:21:16.997Z,-3.05
2019-01-23T05:23:48.153Z,-3.07
2019-01-23T05:26:19.226Z,-3.06
2019-01-23T05:28:50.396Z,-3.02
2019-01-23T05:31:21.670Z,-3.22
2019-01-23T05:33:53.299Z,-3.15
2019-01-23T05:36:24.389Z,-3.47
2019-01-23T05:38:55.565Z,-3.17
2019-01-23T05:41:26.681Z,-3.26
2019-01-23T05:43:57.816Z,-3.26
2019-01-23T05:46:28.927Z,-3.08
2019-01-23T05:48:59.935Z,-3.09
2019-01-23T05:51:31.000Z,-3.13
2019-01-23T05:54:02.082Z,-3.09
2019-01-23T05:56:33.199Z,-3.37
2019-01-23T05:59:04.301Z,-3.39
2019-01-23T06:01:35.465Z,-3.38
2019-01-23T06:04:06.639Z,-3.45
2019-01-23T06:06:37.825Z,-3.29
2019-01-23T06:09:09.777Z,-3.34
2019-01-23T06:11:40.880Z,-3.42
2019-01-23T06:14:12.191Z,-3.26
2019-01-23T06:16:43.369Z,-3.47
2019-01-23T06:19:14.377Z,-3.33
2019-01-23T06:21:45.827Z,-3.22
2019-01-23T06:24:16.998Z,-3.35
2019-01-23T06:26:48.476Z,-3.69
2019-01-23T06:29:19.836Z,-3.58
2019-01-23T06:31:51.033Z,-3.59
2019-01-23T06:34:22.252Z,-3.57
2019-01-23T06:36:53.595Z,-3.53
2019-01-23T06:39:25.827Z,-3.49
2019-01-23T06:41:56.987Z,-3.43
2019-01-23T06:44:28.549Z,-3.37
2019-01-23T06:47:01.241Z,-3.47
2019-01-23T06:49:32.374Z,-3.48
2019-01-23T06:52:03.664Z,-3.48
2019-01-23T06:54:34.760Z,-3.20
2019-01-23T06:57:06.025Z,-3.39
2019-01-23T06:59:37.093Z,-3.57
2019-01-23T07:02:08.479Z,-3.42
2019-01-23T07:04:39.737Z,-3.41
2019-01-23T07:07:10.916Z,-3.64
2019-01-23T07:09:42.066Z,-3.53
2019-01-23T07:12:13.242Z,-3.45
2019-01-23T07:14:44.279Z,-3.24
2019-01-23T07:17:15.499Z,-3.06
2019-01-23T07:19:46.603Z,-3.00
2019-01-23T07:22:17.805Z,-3.12
2019-01-23T07:24:48.916Z,-3.25
2019-01-23T07:27:20.153Z,-3.17
2019-01-23T07:29:51.452Z,-3.14
2019-01-23T07:32:24.370Z,-3.17
2019-01-23T07:34:55.529Z,-3.31
2019-01-23T07:37:26.697Z,-3.20
2019-01-23T07:39:57.805Z,-3.11
2019-01-23T07:42:29.020Z,-3.25
2019-01-23T07:45:00.257Z,-3.30
2019-01-23T07:47:31.476Z,-3.24
2019-01-23T07:50:02.716Z,-3.39
2019-01-23T07:52:34.179Z,-3.18
2019-01-23T07:55:07.251Z,-3.11
2019-01-23T07:57:38.453Z,-3.26
2019-01-23T08:00:12.397Z,-3.13
2019-01-23T08:02:43.582Z,-3.16
2019-01-23T08:05:19.590Z,-3.11
2019-01-23T08:07:49.969Z,-3.09
2019-01-23T08:10:21.765Z,-3.12
2019-01-23T08:12:53.059Z,-3.17
2019-01-23T08:15:29.804Z,-3.11
2019-01-23T08:18:01.053Z,-3.21
2019-01-23T08:20:32.162Z,-3.17
2019-01-23T08:23:03.367Z,-2.98
2019-01-23T08:25:34.611Z,-2.97
2019-01-23T08:28:06.129Z,-2.98
2019-01-23T08:30:39.245Z,-3.06
2019-01-23T08:33:10.215Z,-2.73
2019-01-23T08:35:41.521Z,-2.77
2019-01-23T08:38:12.741Z,-2.76
2019-01-23T08:40:43.867Z,-2.99
2019-01-23T08:43:15.121Z,-2.96
2019-01-23T08:45:46.408Z,-2.94
2019-01-23T08:48:17.486Z,-2.97
2019-01-23T08:50:48.646Z,-2.82
2019-01-23T08:53:20.823Z,-2.75
2019-01-23T08:55:53.804Z,-2.71
2019-01-23T08:58:24.880Z,-2.74
2019-01-23T09:00:56.018Z,-3.08
2019-01-23T09:03:27.169Z,-2.75
2019-01-23T09:05:58.321Z,-2.83
2019-01-23T09:08:29.492Z,-2.70
2019-01-23T09:11:01.697Z,-2.81
2019-01-23T09:13:32.891Z,-2.61
2019-01-23T09:16:04.217Z,-2.38
2019-01-23T09:18:35.569Z,-2.28
2019-01-23T09:21:06.767Z,-2.22
2019-01-23T09:23:37.959Z,-2.14
2019-01-23T09:26:09.264Z,-2.35
2019-01-23T09:28:40.456Z,-2.61
2019-01-23T09:31:28.661Z,-2.53
2019-01-23T09:34:11.355Z,-2.54
2019-01-23T09:37:00.360Z,-2.62
2019-01-23T09:40:11.936Z,-2.15
2019-01-23T09:43:36.248Z,-1.86
2019-01-23T09:46:32.726Z,-2.10
2019-01-23T09:49:16.860Z,-2.02
2019-01-23T09:52:29.108Z,-1.97
2019-01-23T09:55:00.380Z,-1.90
2019-01-23T09:57:34.214Z,-1.98
2019-01-23T10:00:08.193Z,-1.86
2019-01-23T10:02:39.652Z,-1.94
2019-01-23T10:05:10.800Z,-1.96
2019-01-23T10:07:42.039Z,-1.87
2019-01-23T10:10:15.230Z,-1.85
2019-01-23T10:12:46.463Z,-1.93
2019-01-23T10:15:24.276Z,-1.85
2019-01-23T10:17:55.518Z,-1.84
2019-01-23T10:20:26.612Z,-1.77
2019-01-23T10:22:57.844Z,-1.88
2019-01-23T10:25:28.962Z,-1.81
2019-01-23T10:28:00.148Z,-1.84
2019-01-23T10:30:31.244Z,-1.98
2019-01-23T10:33:02.344Z,-2.07
2019-01-23T10:35:33.602Z,-2.09
2019-01-23T10:38:04.838Z,-2.28
2019-01-23T10:40:37.238Z,-2.28
2019-01-23T10:43:08.371Z,-2.05
2019-01-23T10:45:39.713Z,-1.97
2019-01-23T10:48:10.892Z,-2.11
2019-01-23T10:50:42.220Z,-2.06
2019-01-23T10:53:13.636Z,-1.68
2019-01-23T10:55:44.835Z,-1.75
2019-01-23T10:58:16.058Z,-1.78
2019-01-23T11:00:47.839Z,-2.00
2019-01-23T11:03:19.089Z,-1.70
2019-01-23T11:05:50.281Z,-1.83
2019-01-23T11:08:21.406Z,-1.74
2019-01-23T11:10:52.626Z,-1.72
2019-01-23T11:13:23.937Z,-1.51
2019-01-23T11:15:55.190Z,-1.60
2019-01-23T11:18:26.409Z,-1.73
2019-01-23T11:20:57.666Z,-1.79
2019-01-23T11:23:30.107Z,-1.82
2019-01-23T11:26:01.485Z,-1.71
2019-01-23T11:28:32.596Z,-1.66
2019-01-23T11:31:03.821Z,-1.53
2019-01-23T11:33:34.792Z,-1.61
2019-01-23T11:36:06.044Z,-1.48
2019-01-23T11:38:37.262Z,-1.34
2019-01-23T11:41:08.542Z,-1.30
2019-01-23T11:43:39.697Z,-1.14
2019-01-23T11:46:11.083Z,-1.04
2019-01-23T11:48:42.191Z,-0.95
2019-01-23T11:51:13.367Z,-1.39
2019-01-23T11:53:44.555Z,-1.43
2019-01-23T11:56:15.707Z,-1.50
2019-01-23T11:58:46.783Z,-1.52
2019-01-23T12:01:17.961Z,-1.43
2019-01-23T12:03:49.052Z,-1.43
2019-01-23T12:06:20.225Z,-1.33
2019-01-23T12:08:51.397Z,-1.26
2019-01-23T12:11:22.722Z,-1.49
2019-01-23T12:13:53.840Z,-1.65
2019-01-23T12:16:27.231Z,-2.11
2019-01-23T12:18:58.426Z,-2.12
2019-01-23T12:21:29.511Z,-1.96
2019-01-23T12:24:00.595Z,-1.68
2019-01-23T12:26:31.683Z,-1.75
2019-01-23T12:29:04.180Z,-1.80
2019-01-23T12:31:35.438Z,-2.03
2019-01-23T12:34:06.602Z,-1.69
2019-01-23T12:36:37.794Z,-1.50
2019-01-23T12:39:09.367Z,-1.53
2019-01-23T12:41:40.413Z,-1.77
2019-01-23T12:44:11.791Z,-1.89
2019-01-23T12:46:42.797Z,-1.82
2019-01-23T12:49:13.960Z,-2.16
2019-01-23T12:51:45.132Z,-2.30
2019-01-23T12:54:16.132Z,-2.28
2019-01-23T12:56:47.242Z,-2.22
2019-01-23T12:59:18.354Z,-2.15
2019-01-23T13:01:49.549Z,-2.05
2019-01-23T13:04:20.720Z,-1.96
2019-01-23T13:06:51.876Z,-1.97
2019-01-23T13:09:22.956Z,-1.89
2019-01-23T13:11:54.141Z,-1.71
2019-01-23T13:14:25.216Z,-1.64
2019-01-23T13:16:56.398Z,-1.50
2019-01-23T13:19:27.478Z,-1.31
2019-01-23T13:21:58.569Z,-1.48
2019-01-23T13:24:29.779Z,-1.63
2019-01-23T13:27:01.025Z,-1.55
2019-01-23T13:29:32.153Z,-1.34
2019-01-23T13:32:03.353Z,-1.27
2019-01-23T13:34:34.447Z,-1.40
2019-01-23T13:37:05.705Z,-1.81
2019-01-23T13:39:36.879Z,-1.51
2019-01-23T13:42:08.087Z,-1.72
2019-01-23T13:44:39.305Z,-1.73
2019-01-23T13:47:10.467Z,-1.86
2019-01-23T13:49:41.571Z,-1.34
2019-01-23T13:52:12.672Z,-1.18
2019-01-23T13:54:43.823Z,-1.27
2019-01-23T13:57:15.016Z,-1.24
2019-01-23T13:59:46.252Z,-1.20
2019-01-23T14:02:17.422Z,-1.23
2019-01-23T14:04:48.591Z,-1.10
2019-01-23T14:07:19.707Z,-1.09
2019-01-23T14:09:50.877Z,-1.11
2019-01-23T14:12:22.045Z,-1.43
2019-01-23T14:14:53.211Z,-1.14
2019-01-23T14:17:24.382Z,-1.08
2019-01-23T14:19:55.528Z,-1.13
2019-01-23T14:22:26.672Z,-1.14
2019-01-23T14:24:58.904Z,-1.45
2019-01-23T14:27:30.027Z,-1.34
2019-01-23T14:30:01.096Z,-1.45
2019-01-23T14:32:32.133Z,-1.40
2019-01-23T14:35:03.323Z,-1.28
2019-01-23T14:37:34.404Z,-1.29
2019-01-23T14:40:06.297Z,-1.31
2019-01-23T14:42:37.596Z,-1.46
2019-01-23T14:45:09.189Z,-1.51
2019-01-23T14:47:40.351Z,-1.64
2019-01-23T14:50:13.099Z,-1.83
2019-01-23T14:52:44.814Z,-1.58
2019-01-23T14:55:16.179Z,-1.49
2019-01-23T14:57:47.411Z,-1.61
2019-01-23T15:00:24.089Z,-1.64
2019-01-23T15:02:55.277Z,-1.54
2019-01-23T15:05:26.632Z,-1.50
2019-01-23T15:07:57.799Z,-1.53
2019-01-23T15:10:30.446Z,-1.60
2019-01-23T15:13:01.960Z,-1.58
2019-01-23T15:15:33.137Z,-1.54
2019-01-23T15:18:04.437Z,-1.59
2019-01-23T15:20:40.264Z,-1.46
2019-01-23T15:23:11.459Z,-1.57
2019-01-23T15:25:42.559Z,-1.48
2019-01-23T15:28:13.594Z,-1.36
2019-01-23T15:30:44.754Z,-1.75
2019-01-23T15:33:15.906Z,-1.64
2019-01-23T15:35:47.016Z,-1.65
2019-01-23T15:38:18.138Z,-2.00
2019-01-23T15:40:49.307Z,-1.79
2019-01-23T15:43:20.420Z,-1.66
2019-01-23T15:45:51.580Z,-1.72
2019-01-23T15:48:22.769Z,-1.76
2019-01-23T15:50:53.895Z,-1.92
2019-01-23T15:53:25.014Z,-1.86
2019-01-23T15:55:57.128Z,-2.02
2019-01-23T15:58:28.311Z,-1.95
2019-01-23T16:00:59.369Z,-1.93
2019-01-23T16:03:30.595Z,-1.88
2019-01-23T16:06:01.804Z,-2.06
2019-01-23T16:08:32.987Z,-2.08
2019-01-23T16:11:04.197Z,-1.99
2019-01-23T16:13:42.058Z,-1.93
2019-01-23T16:16:08.423Z,-2.18
2019-01-23T16:18:39.582Z,-2.09
2019-01-23T16:21:10.833Z,-2.08
2019-01-23T16:23:42.017Z,-2.11
2019-01-23T16:26:13.184Z,-2.09
2019-01-23T16:28:44.384Z,-2.02
2019-01-23T16:31:15.523Z,-1.99
2019-01-23T16:33:46.530Z,-2.06
2019-01-23T16:36:17.807Z,-1.94
2019-01-23T16:38:48.972Z,-2.05
2019-01-23T16:41:20.139Z,-2.24
2019-01-23T16:43:51.335Z,-2.06
2019-01-23T16:46:22.530Z,-2.18
2019-01-23T16:48:53.614Z,-2.10
2019-01-23T16:51:25.374Z,-2.08
2019-01-23T16:53:57.509Z,-1.99
2019-01-23T16:56:28.678Z,-1.99
2019-01-23T16:58:59.924Z,-2.12
2019-01-23T17:01:31.142Z,-2.25
2019-01-23T17:04:02.324Z,-2.36
2019-01-23T17:06:33.577Z,-2.42
2019-01-23T17:09:07.628Z,-2.43
2019-01-23T17:11:38.807Z,-2.54
2019-01-23T17:14:09.976Z,-2.57
2019-01-23T17:16:41.080Z,-2.37
2019-01-23T17:19:12.173Z,-2.28
2019-01-23T17:21:43.360Z,-2.30
2019-01-23T17:24:14.519Z,-2.28
2019-01-23T17:26:45.660Z,-2.49
2019-01-23T17:29:16.834Z,-2.33
2019-01-23T17:31:48.010Z,-2.30
2019-01-23T17:34:19.184Z,-2.35
2019-01-23T17:36:50.343Z,-2.32
2019-01-23T17:39:21.582Z,-2.47
2019-01-23T17:41:52.752Z,-2.47
2019-01-23T17:44:23.862Z,-2.38
2019-01-23T17:46:55.188Z,-2.33
2019-01-23T17:49:26.327Z,-2.19
2019-01-23T17:51:57.579Z,-2.29
2019-01-23T17:54:28.579Z,-2.34
2019-01-23T17:56:59.736Z,-2.54
2019-01-23T17:59:31.304Z,-2.49
2019-01-23T18:02:02.643Z,-2.53
2019-01-23T18:04:33.808Z,-2.62
2019-01-23T18:07:05.020Z,-2.50
2019-01-23T18:09:36.126Z,-2.45
2019-01-23T18:12:07.321Z,-2.39
2019-01-23T18:14:38.427Z,-2.59
2019-01-23T18:17:09.540Z,-2.70
2019-01-23T18:19:40.651Z,-2.73
2019-01-23T18:22:11.770Z,-2.73
2019-01-23T18:24:42.872Z,-2.54
2019-01-23T18:27:14.094Z,-2.68
2019-01-23T18:29:45.366Z,-2.51
2019-01-23T18:32:16.453Z,-2.53
2019-01-23T18:35:33.686Z,-2.47
2019-01-23T18:38:36.478Z,-2.31
2019-01-23T18:41:41.941Z,-2.36
2019-01-23T18:44:53.630Z,-2.21
2019-01-23T18:48:21.219Z,-2.58
2019-01-23T18:51:05.934Z,-2.44
2019-01-23T18:53:37.027Z,-2.38
2019-01-23T18:56:08.219Z,-2.39
2019-01-23T18:58:39.394Z,-2.20
2019-01-23T19:01:10.503Z,-2.26
2019-01-23T19:03:41.683Z,-2.29
2019-01-23T19:06:12.857Z,-2.17
2019-01-23T19:08:44.044Z,-2.29
2019-01-23T19:11:15.302Z,-2.16
2019-01-23T19:13:46.534Z,-2.12
2019-01-23T19:16:17.788Z,-2.25
2019-01-23T19:18:49.004Z,-2.22
2019-01-23T19:21:20.270Z,-2.11
2019-01-23T19:23:51.448Z,-2.13
2019-01-23T19:26:22.634Z,-2.17
2019-01-23T19:28:53.825Z,-2.22
2019-01-23T19:31:24.944Z,-2.23
2019-01-23T19:33:56.047Z,-2.34
2019-01-23T19:36:27.165Z,-2.14
2019-01-23T19:38:58.253Z,-2.10
2019-01-23T19:41:29.522Z,-2.11
2019-01-23T19:44:00.700Z,-2.15
2019-01-23T19:46:31.808Z,-2.11
2019-01-23T19:49:02.902Z,-2.20
2019-01-23T19:51:35.041Z,-2.14
2019-01-23T19:54:06.778Z,-2.19
2019-01-23T19:56:37.927Z,-1.99
2019-01-23T19:59:09.145Z,-2.00
2019-01-23T20:01:40.298Z,-1.97
2019-01-23T20:04:11.594Z,-2.03
2019-01-23T20:06:42.746Z,-1.98
2019-01-23T20:09:14.084Z,-2.16
2019-01-23T20:11:45.235Z,-2.04
2019-01-23T20:14:16.227Z,-2.15
2019-01-23T20:16:47.383Z,-2.12
2019-01-23T20:19:18.453Z,-2.08
2019-01-23T20:21:49.488Z,-2.06
2019-01-23T20:24:20.579Z,-2.11
2019-01-23T20:26:51.645Z,-2.27
2019-01-23T20:29:23.893Z,-2.30
2019-01-23T20:31:55.102Z,-2.22
2019-01-23T20:34:26.100Z,-2.27
2019-01-23T20:36:57.256Z,-2.28
2019-01-23T20:39:28.271Z,-2.34
2019-01-23T20:41:59.445Z,-2.33
2019-01-23T20:44:30.618Z,-2.18
2019-01-23T20:47:01.635Z,-2.26
2019-01-23T20:49:32.794Z,-2.33
2019-01-23T20:52:04.192Z,-2.27
2019-01-23T20:54:44.290Z,-2.29
2019-01-23T20:57:15.568Z,-2.20
2019-01-23T20:59:46.720Z,-2.28
2019-01-23T21:02:17.880Z,-2.20
2019-01-23T21:04:48.985Z,-2.31
2019-01-23T21:07:20.067Z,-2.11
2019-01-23T21:09:51.101Z,-2.04
2019-01-23T21:12:22.257Z,-2.20
2019-01-23T21:14:53.430Z,-2.07
2019-01-23T21:17:24.594Z,-2.19
2019-01-23T21:19:55.651Z,-2.23
2019-01-23T21:22:26.808Z,-2.25
2019-01-23T21:24:57.962Z,-2.16
2019-01-23T21:27:29.070Z,-2.22
2019-01-23T21:30:00.092Z,-2.48
2019-01-23T21:32:31.267Z,-2.44
2019-01-23T21:35:02.507Z,-2.34
2019-01-23T21:37:34.590Z,-2.26
2019-01-23T21:40:08.312Z,-2.28
2019-01-23T21:42:39.584Z,-2.21
2019-01-23T21:45:11.722Z,-2.24
2019-01-23T21:47:43.115Z,-1.94
2019-01-23T21:50:16.574Z,-1.98
2019-01-23T21:52:47.794Z,-2.09
2019-01-23T21:55:20.591Z,-2.20
2019-01-23T21:57:52.673Z,-2.05
2019-01-23T22:00:26.682Z,-2.11
2019-01-23T22:02:59.106Z,-1.99
2019-01-23T22:05:30.294Z,-2.00
2019-01-23T22:08:01.460Z,-2.22
2019-01-23T22:10:32.565Z,-2.24
2019-01-23T22:13:03.876Z,-2.16
2019-01-23T22:15:35.381Z,-2.14
2019-01-23T22:18:08.170Z,-2.14
2019-01-23T22:20:39.311Z,-2.56
2019-01-23T22:23:10.388Z,-2.77
2019-01-23T22:25:41.478Z,-2.48
2019-01-23T22:28:12.642Z,-2.26
2019-01-23T22:30:43.697Z,-2.28
2019-01-23T22:33:14.874Z,-2.26
2019-01-23T22:35:46.003Z,-2.32
2019-01-23T22:38:17.206Z,-2.21
2019-01-23T22:40:51.254Z,-2.32
2019-01-23T22:43:22.384Z,-2.38
2019-01-23T22:45:53.372Z,-2.18
2019-01-23T22:48:24.809Z,-2.29
2019-01-23T22:50:55.955Z,-2.36
2019-01-23T22:53:27.161Z,-2.63
2019-01-23T22:55:58.229Z,-2.57
2019-01-23T22:58:29.254Z,-2.45
2019-01-23T23:01:16.339Z,-2.27
2019-01-23T23:03:47.684Z,-2.44
2019-01-23T23:06:18.744Z,-2.40
2019-01-23T23:08:50.605Z,-2.33
2019-01-23T23:11:22.951Z,-2.24
2019-01-23T23:13:54.298Z,-2.15
2019-01-23T23:16:25.402Z,-2.40
2019-01-23T23:18:57.002Z,-2.48
2019-01-23T23:21:28.118Z,-2.44
2019-01-23T23:23:59.209Z,-2.40
2019-01-23T23:26:30.453Z,-2.50
2019-01-23T23:29:01.641Z,-2.43
2019-01-23T23:31:32.711Z,-2.31
2019-01-23T23:34:09.890Z,-2.50
2019-01-23T23:36:37.050Z,-2.43
2019-01-23T23:39:09.647Z,-2.17
2019-01-23T23:41:40.665Z,-2.11
2019-01-23T23:44:11.741Z,-2.15
2019-01-23T23:46:42.881Z,-2.16
2019-01-23T23:49:13.879Z,-2.21
2019-01-23T23:51:45.007Z,-2.10
2019-01-23T23:54:16.180Z,-2.26
2019-01-23T23:56:47.208Z,-2.19
2019-01-23T23:59:18.296Z,-2.22
